Time;durP1;ratioP1;P1;durP2;ratioP2;P2;SDS_P1;SDS_P2;PMS_P1;PMS_P2;Temp;Humidity;BMP_temperature;BMP_pressure;BME280_temperature;BME280_humidity;BME280_pressure;Samples;Min_cycle;Max_cycle;Signal;HPM_P1;HPM_P2
2022/07/25 00:01:04;;;;;;;14.10;7.80;;;20.50;99.90;;;;;;6101604;23;20018;-89
2022/07/25 00:03:29;;;;;;;15.88;7.65;;;20.50;99.90;;;;;;6103805;23;20435;-89
2022/07/25 00:05:55;;;;;;;12.23;7.13;;;20.50;99.90;;;;;;6104566;23;20443;-89
2022/07/25 00:08:20;;;;;;;11.38;7.03;;;20.50;99.90;;;;;;6102023;23;20014;-89
2022/07/25 00:10:46;;;;;;;11.07;6.63;;;20.80;99.90;;;;;;6100346;23;20522;-89
2022/07/25 00:13:12;;;;;;;13.38;7.50;;;20.40;99.90;;;;;;6127875;23;20025;-89
2022/07/25 00:15:37;;;;;;;13.43;7.85;;;20.40;99.90;;;;;;6127155;23;20021;-89
2022/07/25 00:18:03;;;;;;;13.57;8.32;;;20.40;99.90;;;;;;6100666;23;20046;-89
2022/07/25 00:20:29;;;;;;;14.82;8.45;;;20.40;99.90;;;;;;6101848;23;20017;-88
2022/07/25 00:22:54;;;;;;;12.75;8.13;;;20.50;99.90;;;;;;6126474;23;20017;-88
2022/07/25 00:25:20;;;;;;;14.48;8.43;;;20.50;99.90;;;;;;6100682;23;20028;-88
2022/07/25 00:27:45;;;;;;;12.77;7.72;;;20.20;99.90;;;;;;6117984;23;20053;-88
2022/07/25 00:30:11;;;;;;;14.80;8.55;;;20.40;99.90;;;;;;6115444;23;20018;-89
2022/07/25 00:32:37;;;;;;;15.23;8.73;;;20.30;99.90;;;;;;6128359;23;20435;-88
2022/07/25 00:35:03;;;;;;;13.23;8.25;;;20.80;99.90;;;;;;6127913;23;20022;-89
2022/07/25 00:37:29;;;;;;;13.25;8.25;;;20.30;99.90;;;;;;6127631;23;20018;-88
2022/07/25 00:39:54;;;;;;;12.57;8.15;;;20.30;99.90;;;;;;6126214;23;20080;-89
2022/07/25 00:42:22;;;;;;;13.05;8.43;;;20.40;99.90;;;;;;6128116;23;20026;-89
2022/07/25 00:44:48;;;;;;;14.20;8.70;;;20.30;99.90;;;;;;6127477;23;20013;-89
2022/07/25 00:47:14;;;;;;;13.93;8.68;;;20.30;99.90;;;;;;6127128;23;20048;-88
2022/07/25 00:49:39;;;;;;;15.63;9.05;;;20.70;99.90;;;;;;6127650;23;20463;-88
2022/07/25 00:52:05;;;;;;;14.13;8.32;;;20.30;99.90;;;;;;6127793;23;20021;-89
2022/07/25 00:54:32;;;;;;;15.43;8.82;;;20.40;99.90;;;;;;6126881;23;20049;-88
2022/07/25 00:56:57;;;;;;;13.20;8.60;;;20.30;99.90;;;;;;6127200;23;20476;-89
2022/07/25 00:59:23;;;;;;;12.80;8.90;;;20.30;99.90;;;;;;6105581;23;20049;-89
2022/07/25 01:01:48;;;;;;;14.60;8.77;;;20.40;99.90;;;;;;6126320;23;20024;-89
2022/07/25 01:04:15;;;;;;;13.77;8.45;;;20.30;99.90;;;;;;6101381;23;20025;-89
2022/07/25 01:06:41;;;;;;;13.85;8.85;;;20.20;99.90;;;;;;6101606;23;20108;-88
2022/07/25 01:09:07;;;;;;;15.10;8.50;;;20.20;99.90;;;;;;6130274;23;20017;-88
2022/07/25 01:11:32;;;;;;;13.20;8.85;;;20.30;99.90;;;;;;6127596;23;20050;-89
2022/07/25 01:13:58;;;;;;;15.20;8.52;;;20.20;99.90;;;;;;6100625;23;20024;-88
2022/07/25 01:16:24;;;;;;;13.52;8.35;;;20.30;99.90;;;;;;6160066;23;20071;-89
2022/07/25 01:18:49;;;;;;;13.65;9.10;;;20.10;99.90;;;;;;6160083;23;20041;-89
2022/07/25 01:21:15;;;;;;;13.82;8.93;;;20.10;99.90;;;;;;6159335;23;20398;-89
2022/07/25 01:23:44;;;;;;;13.60;8.70;;;20.30;99.90;;;;;;6190205;23;20110;-88
2022/07/25 01:26:09;;;;;;;14.20;9.02;;;20.50;99.90;;;;;;6189305;23;20084;-89
2022/07/25 01:28:35;;;;;;;14.57;8.95;;;20.00;99.90;;;;;;6185954;23;20013;-88
2022/07/25 01:31:00;;;;;;;15.10;8.68;;;20.00;99.90;;;;;;6186664;23;20025;-88
2022/07/25 01:33:26;;;;;;;14.23;9.18;;;20.00;99.90;;;;;;6160397;23;20048;-88
2022/07/25 01:35:52;;;;;;;14.80;9.15;;;20.60;99.90;;;;;;6159124;23;20349;-89
2022/07/25 01:38:17;;;;;;;13.57;9.00;;;19.80;99.90;;;;;;6186766;23;20017;-89
2022/07/25 01:40:43;;;;;;;15.90;9.85;;;19.80;99.90;;;;;;6159888;23;20068;-88
2022/07/25 01:43:09;;;;;;;15.18;9.98;;;20.00;99.90;;;;;;6185661;23;20013;-89
2022/07/25 01:45:35;;;;;;;15.52;9.95;;;19.80;99.90;;;;;;6159589;23;20092;-89
2022/07/25 01:48:01;;;;;;;16.33;10.52;;;19.70;99.90;;;;;;6185962;23;20048;-89
2022/07/25 01:50:26;;;;;;;15.20;10.38;;;19.90;99.90;;;;;;6158964;23;20021;-89
2022/07/25 01:52:52;;;;;;;15.80;11.13;;;19.80;99.90;;;;;;6159324;23;20013;-89
2022/07/25 01:55:18;;;;;;;16.27;10.25;;;20.00;99.90;;;;;;6159781;23;20021;-88
2022/07/25 01:57:43;;;;;;;15.60;10.80;;;19.70;99.90;;;;;;6158565;23;20040;-89
2022/07/25 02:00:12;;;;;;;15.80;10.85;;;19.90;99.90;;;;;;6187758;23;20374;-88
2022/07/25 02:02:42;;;;;;;16.13;11.20;;;19.70;99.90;;;;;;6191519;23;20021;-89
2022/07/25 02:05:08;;;;;;;15.82;11.57;;;19.80;99.90;;;;;;6173912;23;20013;-88
2022/07/25 02:07:34;;;;;;;16.35;11.48;;;19.70;99.90;;;;;;6187524;23;20017;-88
2022/07/25 02:10:00;;;;;;;15.57;11.15;;;19.70;99.90;;;;;;6159600;23;20101;-89
2022/07/25 02:12:25;;;;;;;16.85;11.50;;;19.70;99.90;;;;;;6158620;23;20052;-89
2022/07/25 02:14:55;;;;;;;15.85;11.13;;;20.00;99.90;;;;;;6152658;23;20006;-89
2022/07/25 02:17:21;;;;;;;16.40;11.15;;;20.30;99.90;;;;;;6155602;23;20021;-88
2022/07/25 02:19:46;;;;;;;18.08;11.50;;;19.70;99.90;;;;;;6129359;23;20024;-89
2022/07/25 02:22:24;;;;;;;17.40;11.02;;;20.10;99.90;;;;;;6105564;23;20026;-88
2022/07/25 02:24:50;;;;;;;16.98;11.48;;;19.90;99.90;;;;;;6154989;23;20089;-89
2022/07/25 02:27:16;;;;;;;16.67;12.00;;;20.30;99.90;;;;;;6130109;23;20529;-88
2022/07/25 02:29:41;;;;;;;16.00;11.00;;;19.60;99.90;;;;;;6129816;23;20033;-88
2022/07/25 02:32:07;;;;;;;16.75;11.60;;;19.60;99.90;;;;;;6159974;23;20342;-88
2022/07/25 02:34:32;;;;;;;16.73;11.45;;;19.60;99.90;;;;;;6183666;23;20048;-88
2022/07/25 02:36:58;;;;;;;14.18;10.63;;;19.60;99.90;;;;;;6170111;23;20121;-88
2022/07/25 02:39:24;;;;;;;16.65;11.50;;;19.60;99.90;;;;;;6160624;23;20021;-88
2022/07/25 02:41:49;;;;;;;15.10;10.57;;;19.50;99.90;;;;;;6130136;23;20024;-88
2022/07/25 02:44:15;;;;;;;17.10;11.02;;;19.50;99.90;;;;;;6136654;23;20017;-88
2022/07/25 02:46:41;;;;;;;16.25;11.02;;;19.90;99.90;;;;;;6129285;23;20569;-88
2022/07/25 02:49:06;;;;;;;15.95;11.32;;;19.50;99.90;;;;;;6155604;23;20017;-88
2022/07/25 02:51:32;;;;;;;14.27;9.98;;;19.50;99.90;;;;;;6155887;23;20022;-88
2022/07/25 02:53:57;;;;;;;15.63;10.32;;;19.50;99.90;;;;;;6128118;23;20017;-88
2022/07/25 02:56:23;;;;;;;16.38;10.18;;;19.40;99.90;;;;;;6129514;23;20497;-88
2022/07/25 02:58:48;;;;;;;16.90;10.93;;;19.50;99.90;;;;;;6132194;23;20064;-88
2022/07/25 03:01:14;;;;;;;15.50;10.85;;;19.80;99.90;;;;;;6129626;23;20156;-87
2022/07/25 03:03:40;;;;;;;15.80;10.52;;;19.50;99.90;;;;;;6155721;23;20013;-88
2022/07/25 03:06:08;;;;;;;16.35;10.98;;;19.40;99.90;;;;;;6129685;23;20021;-88
2022/07/25 03:08:34;;;;;;;17.45;10.68;;;19.40;99.90;;;;;;6132600;23;20018;-88
2022/07/25 03:10:59;;;;;;;16.13;10.70;;;19.50;99.90;;;;;;6156063;23;20024;-88
2022/07/25 03:13:25;;;;;;;17.23;11.05;;;20.00;99.90;;;;;;6155720;23;20446;-88
2022/07/25 03:15:51;;;;;;;16.80;10.60;;;19.50;99.90;;;;;;6155740;23;20029;-88
2022/07/25 03:18:16;;;;;;;16.55;11.15;;;19.50;99.90;;;;;;6156140;23;20022;-88
2022/07/25 03:20:42;;;;;;;17.10;11.32;;;19.50;99.90;;;;;;6128728;23;20024;-88
2022/07/25 03:23:07;;;;;;;17.42;11.02;;;19.50;99.90;;;;;;6129139;23;20070;-89
2022/07/25 03:25:33;;;;;;;16.38;11.15;;;19.50;99.90;;;;;;6129562;23;20021;-88
2022/07/25 03:28:03;;;;;;;17.50;11.35;;;19.40;99.90;;;;;;6128275;23;20036;-88
2022/07/25 03:30:28;;;;;;;17.73;11.18;;;19.50;99.90;;;;;;6155815;23;20023;-88
2022/07/25 03:32:54;;;;;;;17.88;11.65;;;19.40;99.90;;;;;;6155310;23;20013;-87
2022/07/25 03:35:20;;;;;;;17.00;10.95;;;19.40;99.90;;;;;;6129236;23;20018;-88
2022/07/25 03:37:45;;;;;;;17.17;11.05;;;19.40;99.90;;;;;;6146493;23;20029;-88
2022/07/25 03:40:12;;;;;;;17.52;11.80;;;19.40;99.90;;;;;;6139347;23;20017;-88
2022/07/25 03:42:37;;;;;;;18.10;11.25;;;19.40;99.90;;;;;;6155878;23;20024;-88
2022/07/25 03:45:04;;;;;;;18.50;11.93;;;19.40;99.90;;;;;;6156459;23;20053;-88
2022/07/25 03:47:29;;;;;;;18.60;12.18;;;19.40;99.90;;;;;;6156140;23;20389;-88
2022/07/25 03:49:55;;;;;;;18.70;11.75;;;19.40;99.90;;;;;;6128166;23;20095;-88
2022/07/25 03:52:20;;;;;;;19.10;12.55;;;19.40;99.90;;;;;;6129245;23;20028;-89
2022/07/25 03:54:46;;;;;;;20.38;12.95;;;19.40;99.90;;;;;;6155248;23;20073;-88
2022/07/25 03:57:11;;;;;;;19.30;12.88;;;19.40;99.90;;;;;;6128578;23;20365;-88
2022/07/25 03:59:37;;;;;;;17.83;11.77;;;19.40;99.90;;;;;;6156101;23;20090;-88
2022/07/25 04:02:03;;;;;;;19.02;12.30;;;19.40;99.90;;;;;;6157746;23;20021;-88
2022/07/25 04:04:29;;;;;;;16.90;11.98;;;19.40;99.90;;;;;;6159562;23;20434;-89
2022/07/25 04:06:55;;;;;;;16.50;11.43;;;19.40;99.90;;;;;;6128489;23;20144;-88
2022/07/25 04:09:22;;;;;;;16.13;10.68;;;19.40;99.90;;;;;;6129170;23;20052;-89
2022/07/25 04:11:47;;;;;;;16.70;11.05;;;19.40;99.90;;;;;;6154133;23;20092;-88
2022/07/25 04:14:13;;;;;;;16.73;10.77;;;19.40;99.90;;;;;;6129279;23;20359;-88
2022/07/25 04:16:42;;;;;;;17.88;11.23;;;19.50;99.90;;;;;;6154753;23;20021;-88
2022/07/25 04:19:07;;;;;;;16.60;10.95;;;19.50;99.90;;;;;;6155124;23;20092;-88
2022/07/25 04:21:33;;;;;;;17.45;11.35;;;19.40;99.90;;;;;;6155435;23;20018;-89
2022/07/25 04:23:59;;;;;;;17.15;11.15;;;19.50;99.90;;;;;;6132528;23;20023;-88
2022/07/25 04:26:24;;;;;;;18.33;10.75;;;19.50;99.90;;;;;;6129297;23;20014;-88
2022/07/25 04:28:50;;;;;;;18.02;11.23;;;19.50;99.90;;;;;;6155011;23;20089;-88
2022/07/25 04:31:15;;;;;;;16.85;10.80;;;19.60;99.90;;;;;;6155169;23;20049;-88
2022/07/25 04:33:41;;;;;;;19.10;11.10;;;19.50;99.90;;;;;;6157795;23;20021;-88
2022/07/25 04:36:07;;;;;;;17.13;10.32;;;19.60;99.90;;;;;;6156877;23;20017;-88
2022/07/25 04:38:33;;;;;;;17.40;10.90;;;19.60;99.90;;;;;;6129986;23;20024;-88
2022/07/25 04:41:00;;;;;;;17.50;11.43;;;19.60;99.90;;;;;;6130777;23;20021;-88
2022/07/25 04:43:26;;;;;;;18.25;11.32;;;19.70;99.90;;;;;;6131042;23;20021;-88
2022/07/25 04:45:52;;;;;;;15.70;10.70;;;19.70;99.90;;;;;;6129845;23;20122;-88
2022/07/25 04:48:18;;;;;;;17.58;11.63;;;19.80;99.90;;;;;;6131518;23;20013;-88
2022/07/25 04:50:44;;;;;;;18.80;11.45;;;19.90;99.90;;;;;;6131855;23;20056;-88
2022/07/25 04:53:09;;;;;;;16.42;11.52;;;19.90;99.90;;;;;;6130092;23;20045;-89
2022/07/25 04:55:35;;;;;;;16.13;10.98;;;20.00;99.90;;;;;;6131281;23;20009;-88
2022/07/25 04:58:01;;;;;;;17.13;11.15;;;20.00;99.90;;;;;;6162001;23;20018;-88
2022/07/25 05:00:27;;;;;;;18.25;11.35;;;20.10;99.90;;;;;;6131884;23;20022;-88
2022/07/25 05:02:53;;;;;;;19.30;11.85;;;20.10;99.90;;;;;;6131295;23;20028;-88
2022/07/25 05:05:19;;;;;;;17.30;11.30;;;20.50;99.90;;;;;;6130833;23;20021;-88
2022/07/25 05:07:45;;;;;;;17.00;12.15;;;20.20;99.90;;;;;;6132737;23;20080;-88
2022/07/25 05:10:10;;;;;;;15.48;11.00;;;20.30;99.90;;;;;;6156900;23;20398;-89
2022/07/25 05:12:36;;;;;;;18.15;11.55;;;20.30;99.90;;;;;;6174601;23;20010;-88
2022/07/25 05:15:03;;;;;;;18.02;11.45;;;20.30;99.90;;;;;;6165711;23;20201;-89
2022/07/25 05:17:29;;;;;;;19.10;11.20;;;20.40;99.90;;;;;;6155587;23;20085;-88
2022/07/25 05:19:56;;;;;;;16.98;11.25;;;20.50;99.90;;;;;;6128685;23;20090;-88
2022/07/25 05:22:22;;;;;;;19.83;11.45;;;20.50;99.90;;;;;;6128123;23;20017;-88
2022/07/25 05:24:48;;;;;;;18.23;10.95;;;20.60;99.90;;;;;;6159436;23;20103;-89
2022/07/25 05:27:13;;;;;;;16.90;11.52;;;20.60;99.90;;;;;;6154044;23;20017;-87
2022/07/25 05:29:39;;;;;;;18.48;11.60;;;21.20;99.90;;;;;;6128226;23;20427;-82
2022/07/25 05:32:04;;;;;;;16.92;11.10;;;20.60;99.90;;;;;;6154380;23;20028;-81
2022/07/25 05:34:30;;;;;;;19.48;11.07;;;20.70;99.90;;;;;;6127746;23;20068;-82
2022/07/25 05:36:56;;;;;;;18.88;11.38;;;20.70;99.90;;;;;;6156242;23;20040;-77
2022/07/25 05:39:21;;;;;;;19.20;11.68;;;20.80;99.90;;;;;;6128118;23;20100;-79
2022/07/25 05:41:47;;;;;;;16.88;10.82;;;20.90;99.90;;;;;;6126683;23;20029;-81
2022/07/25 05:44:12;;;;;;;15.85;10.90;;;21.00;99.90;;;;;;6154078;23;20018;-81
2022/07/25 05:46:38;;;;;;;18.80;11.02;;;21.10;99.90;;;;;;6128657;23;20450;-80
2022/07/25 05:49:04;;;;;;;16.92;10.40;;;21.20;99.90;;;;;;6126911;23;20422;-82
2022/07/25 05:51:29;;;;;;;18.27;10.85;;;21.40;99.90;;;;;;6128283;23;20017;-81
2022/07/25 05:53:55;;;;;;;16.20;10.68;;;21.50;99.90;;;;;;6127619;23;20065;-80
2022/07/25 05:56:21;;;;;;;15.65;10.65;;;21.60;99.90;;;;;;6153450;23;20047;-81
2022/07/25 05:58:46;;;;;;;19.00;10.85;;;21.70;99.90;;;;;;6153675;23;20060;-80
2022/07/25 06:01:13;;;;;;;16.67;10.70;;;21.80;99.90;;;;;;6128600;23;20017;-82
2022/07/25 06:03:39;;;;;;;17.25;10.02;;;21.90;99.90;;;;;;6127548;23;20104;-81
2022/07/25 06:06:09;;;;;;;18.30;10.63;;;22.00;99.90;;;;;;6153986;23;20045;-82
2022/07/25 06:08:37;;;;;;;16.15;10.07;;;22.00;99.90;;;;;;6128291;23;20417;-82
2022/07/25 06:11:03;;;;;;;16.38;10.63;;;22.10;99.90;;;;;;6126686;23;20473;-83
2022/07/25 06:13:29;;;;;;;15.98;10.23;;;22.30;99.90;;;;;;6153736;23;20018;-83
2022/07/25 06:15:55;;;;;;;15.70;10.23;;;22.30;99.90;;;;;;6109751;23;1052143;-82
2022/07/25 06:18:21;;;;;;;16.02;10.10;;;22.50;99.90;;;;;;6128691;23;20064;-82
2022/07/25 06:20:47;;;;;;;17.15;10.13;;;22.60;99.90;;;;;;6155720;23;20018;-83
2022/07/25 06:23:13;;;;;;;16.38;10.32;;;22.70;99.90;;;;;;6129133;23;20048;-82
2022/07/25 06:25:39;;;;;;;14.18;9.57;;;22.80;99.90;;;;;;6154999;23;20036;-84
2022/07/25 06:28:05;;;;;;;15.13;9.43;;;23.10;99.90;;;;;;6155064;23;20018;-83
2022/07/25 06:30:30;;;;;;;17.15;9.75;;;22.90;99.90;;;;;;6128487;23;20013;-83
2022/07/25 06:32:56;;;;;;;16.75;9.82;;;23.20;99.90;;;;;;6155516;23;20021;-83
2022/07/25 06:35:21;;;;;;;15.63;9.43;;;23.00;99.90;;;;;;6129478;23;20079;-83
2022/07/25 06:37:48;;;;;;;14.93;9.50;;;23.40;99.90;;;;;;6128167;23;20017;-82
2022/07/25 06:40:14;;;;;;;14.95;9.30;;;23.30;99.90;;;;;;6129316;23;20026;-83
2022/07/25 06:42:41;;;;;;;15.43;9.50;;;23.30;99.90;;;;;;6129628;23;20104;-82
2022/07/25 06:45:09;;;;;;;15.38;9.23;;;23.30;99.90;;;;;;6154760;23;20013;-82
2022/07/25 06:47:36;;;;;;;13.57;8.48;;;23.30;99.90;;;;;;6133223;23;20025;-84
2022/07/25 06:50:03;;;;;;;15.43;9.07;;;23.30;99.90;;;;;;6155654;23;20014;-80
2022/07/25 06:52:29;;;;;;;14.10;8.70;;;23.30;99.90;;;;;;6128280;23;20341;-80
2022/07/25 06:54:54;;;;;;;16.52;9.00;;;23.40;99.90;;;;;;6154450;23;20013;-80
2022/07/25 06:57:20;;;;;;;13.82;8.50;;;23.30;99.90;;;;;;6129093;23;20033;-80
2022/07/25 06:59:45;;;;;;;14.55;8.45;;;23.40;99.90;;;;;;6127987;23;20021;-80
2022/07/25 07:02:14;;;;;;;16.58;8.48;;;23.60;99.90;;;;;;6129467;23;20016;-81
2022/07/25 07:04:39;;;;;;;13.25;8.77;;;23.70;99.90;;;;;;6129079;23;20064;-81
2022/07/25 07:07:05;;;;;;;15.18;8.18;;;23.90;99.90;;;;;;6154813;23;20013;-85
2022/07/25 07:09:30;;;;;;;14.05;7.43;;;24.00;99.90;;;;;;6129241;23;20352;-82
2022/07/25 07:11:56;;;;;;;13.95;7.53;;;24.40;99.90;;;;;;6128666;23;20017;-83
2022/07/25 07:14:22;;;;;;;15.63;8.13;;;24.70;99.90;;;;;;6128137;23;20116;-82
2022/07/25 07:16:47;;;;;;;13.60;7.55;;;24.60;99.90;;;;;;6154048;23;20089;-83
2022/07/25 07:19:13;;;;;;;15.65;7.78;;;24.80;99.90;;;;;;6129030;23;20096;-83
2022/07/25 07:21:40;;;;;;;13.98;7.72;;;24.90;99.90;;;;;;6154531;23;20017;-83
2022/07/25 07:24:06;;;;;;;13.27;8.20;;;25.20;99.90;;;;;;6128357;23;20025;-87
2022/07/25 07:26:32;;;;;;;12.48;7.97;;;25.40;99.90;;;;;;6129042;23;20028;-87
2022/07/25 07:28:58;;;;;;;12.20;7.50;;;25.70;99.90;;;;;;6127082;23;20014;-88
2022/07/25 07:31:24;;;;;;;13.48;7.85;;;25.60;99.90;;;;;;6128790;23;20025;-86
2022/07/25 07:33:50;;;;;;;12.35;7.82;;;25.90;99.90;;;;;;6127674;23;20013;-87
2022/07/25 07:36:16;;;;;;;14.18;8.50;;;26.00;99.90;;;;;;6129031;23;20021;-87
2022/07/25 07:38:43;;;;;;;13.75;8.57;;;26.00;99.90;;;;;;6154017;23;20371;-87
2022/07/25 07:41:14;;;;;;;14.05;9.30;;;25.90;99.90;;;;;;6141081;23;20022;-88
2022/07/25 07:44:06;;;;;;;13.52;8.65;;;25.90;99.90;;;;;;6218157;23;20012;-88
2022/07/25 07:46:31;;;;;;;15.13;8.55;;;25.90;99.90;;;;;;6217107;23;20016;-89
2022/07/25 07:49:03;;;;;;;14.82;9.55;;;26.60;99.90;;;;;;6243857;23;20408;-87
2022/07/25 07:51:29;;;;;;;14.48;8.85;;;26.20;99.90;;;;;;6217677;23;20349;-88
2022/07/25 07:56:53;;;;;;;16.35;10.05;;;26.50;99.90;;;;;;6216074;23;20463;-89
2022/07/25 07:59:25;;;;;;;14.38;9.85;;;26.50;99.90;;;;;;6218153;23;20016;-88
2022/07/25 08:01:51;;;;;;;15.23;10.77;;;26.40;99.90;;;;;;6244228;23;20012;-87
2022/07/25 08:04:29;;;;;;;15.35;10.20;;;26.50;99.90;;;;;;6218684;23;20336;-87
2022/07/25 08:07:13;;;;;;;14.80;10.40;;;26.50;99.90;;;;;;6218793;23;20016;-85
2022/07/25 08:09:51;;;;;;;17.55;10.45;;;26.40;99.90;;;;;;6219233;23;20448;-86
2022/07/25 08:12:16;;;;;;;16.40;10.52;;;26.40;99.90;;;;;;6247321;23;20016;-86
2022/07/25 08:14:42;;;;;;;15.45;10.02;;;26.60;99.90;;;;;;6247125;23;20433;-87
2022/07/25 08:17:08;;;;;;;14.02;10.13;;;26.60;99.90;;;;;;6246554;23;20024;-87
2022/07/25 08:19:49;;;;;;;16.38;9.35;;;26.70;99.90;;;;;;6220081;23;20070;-86
2022/07/25 08:22:14;;;;;;;14.65;8.77;;;26.80;99.90;;;;;;6220479;23;20045;-84
2022/07/25 08:24:43;;;;;;;15.35;8.98;;;26.80;99.90;;;;;;6261079;23;20041;-85
2022/07/25 08:27:27;;;;;;;16.20;9.57;;;26.70;99.90;;;;;;6223977;23;20447;-88
2022/07/25 08:30:08;;;;;;;14.40;8.82;;;27.00;99.90;;;;;;6219532;23;20043;-86
2022/07/25 08:32:58;;;;;;;14.50;9.50;;;26.60;99.90;;;;;;6220231;23;20020;-87
2022/07/25 08:35:47;;;;;;;15.25;9.15;;;26.60;99.90;;;;;;6220189;23;20077;-87
2022/07/25 08:38:34;;;;;;;17.08;9.10;;;26.50;99.90;;;;;;6219066;23;20091;-87
2022/07/25 08:41:01;;;;;;;13.55;9.05;;;26.20;99.90;;;;;;6247487;23;20027;-85
2022/07/25 08:43:31;;;;;;;14.85;9.20;;;25.80;99.90;;;;;;6263529;22;20047;-86
2022/07/25 08:49:30;;;;;;;15.48;9.73;;;25.70;99.90;;;;;;6243927;23;20039;-86
2022/07/25 08:52:46;;;;;;;15.25;9.52;;;25.70;99.90;;;;;;6185853;23;20076;-87
2022/07/25 08:55:43;;;;;;;17.65;9.77;;;25.40;99.90;;;;;;6159929;23;20025;-87
2022/07/25 08:58:18;;;;;;;16.70;10.15;;;25.50;99.90;;;;;;6158024;23;20027;-88
2022/07/25 09:00:45;;;;;;;15.95;10.20;;;25.60;99.90;;;;;;6159444;23;20390;-89
2022/07/25 09:03:12;;;;;;;17.00;10.18;;;25.80;99.90;;;;;;6160647;23;20020;-86
2022/07/25 09:05:46;;;;;;;14.02;9.38;;;26.30;99.90;;;;;;6161171;23;20021;-86
2022/07/25 09:08:25;;;;;;;13.93;8.98;;;26.20;99.90;;;;;;6160354;23;20013;-84
2022/07/25 09:10:52;;;;;;;15.18;8.23;;;25.50;99.90;;;;;;6159510;23;20024;-86
2022/07/25 09:13:28;;;;;;;14.93;7.07;;;25.40;99.90;;;;;;6185508;23;20612;-87
2022/07/25 09:15:55;;;;;;;12.27;6.60;;;25.20;99.90;;;;;;6159738;23;20036;-87
2022/07/25 09:18:35;;;;;;;11.00;5.80;;;25.20;99.90;;;;;;6185907;23;20072;-87
2022/07/25 09:21:00;;;;;;;11.85;6.13;;;25.20;99.90;;;;;;6159203;23;20051;-87
2022/07/25 09:23:37;;;;;;;11.68;5.70;;;25.10;99.90;;;;;;6159721;23;20350;-87
2022/07/25 09:26:11;;;;;;;11.85;6.18;;;25.20;99.90;;;;;;6159873;23;20024;-87
2022/07/25 09:28:47;;;;;;;11.23;5.80;;;25.30;99.90;;;;;;6186323;23;20017;-86
2022/07/25 09:31:15;;;;;;;14.43;6.13;;;25.40;99.90;;;;;;6160327;23;20021;-88
2022/07/25 09:34:00;;;;;;;11.27;5.75;;;25.60;99.90;;;;;;6159064;23;20024;-87
2022/07/25 09:36:26;;;;;;;10.50;5.55;;;25.20;99.90;;;;;;6185232;23;20056;-87
2022/07/25 09:38:53;;;;;;;12.98;6.00;;;25.10;99.90;;;;;;6186719;23;20013;-86
2022/07/25 09:41:19;;;;;;;10.73;5.60;;;25.10;99.90;;;;;;6185609;23;20402;-87
2022/07/25 09:43:44;;;;;;;10.15;5.38;;;25.00;99.90;;;;;;6185820;23;20052;-90
2022/07/25 09:46:11;;;;;;;13.45;5.38;;;24.90;99.90;;;;;;6159657;23;20433;-87
2022/07/25 09:48:39;;;;;;;10.50;4.63;;;24.90;99.90;;;;;;6158865;23;20044;-87
2022/07/25 09:51:06;;;;;;;10.43;4.93;;;25.20;99.90;;;;;;6159117;23;20021;-86
2022/07/25 09:53:32;;;;;;;10.75;5.10;;;25.20;99.90;;;;;;6185626;23;20342;-87
2022/07/25 09:55:58;;;;;;;9.60;4.88;;;25.30;99.90;;;;;;6184930;23;20028;-87
2022/07/25 09:58:25;;;;;;;10.90;5.22;;;25.40;99.90;;;;;;6159516;23;20048;-87
2022/07/25 10:00:56;;;;;;;8.75;4.47;;;25.50;99.90;;;;;;6165925;23;20067;-88
2022/07/25 10:03:31;;;;;;;12.02;5.63;;;25.60;99.90;;;;;;6167188;23;20100;-87
2022/07/25 10:06:03;;;;;;;11.05;4.90;;;25.70;99.90;;;;;;6185461;23;20441;-86
2022/07/25 10:08:35;;;;;;;9.15;5.03;;;25.80;99.90;;;;;;6158267;23;20028;-86
2022/07/25 10:11:00;;;;;;;11.60;5.40;;;25.80;99.90;;;;;;6158998;23;20025;-86
2022/07/25 10:13:37;;;;;;;9.57;5.28;;;26.00;99.90;;;;;;6186075;23;20039;-87
2022/07/25 10:16:14;;;;;;;11.68;5.60;;;26.00;99.90;;;;;;6184803;23;20013;-87
2022/07/25 10:18:48;;;;;;;10.75;5.60;;;26.20;99.90;;;;;;6185821;23;20024;-86
2022/07/25 10:21:14;;;;;;;12.00;5.57;;;26.20;99.90;;;;;;6185921;23;20009;-87
2022/07/25 10:23:40;;;;;;;10.93;6.00;;;26.00;99.90;;;;;;6158221;23;20023;-84
2022/07/25 10:26:15;;;;;;;11.05;5.47;;;25.90;99.90;;;;;;6159018;23;20498;-85
2022/07/25 10:28:48;;;;;;;9.65;5.68;;;25.70;99.90;;;;;;6159409;23;20009;-84
2022/07/25 10:31:20;;;;;;;10.32;5.03;;;25.40;99.90;;;;;;6158151;23;20044;-85
2022/07/25 10:33:55;;;;;;;22.92;5.10;;;25.30;99.90;;;;;;6158840;23;20017;-85
2022/07/25 10:36:23;;;;;;;11.85;4.18;;;25.10;99.90;;;;;;6159138;23;20345;-85
2022/07/25 10:38:56;;;;;;;10.40;3.88;;;25.00;99.90;;;;;;6184514;23;20020;-85
2022/07/25 10:41:25;;;;;;;10.05;3.88;;;24.90;99.90;;;;;;6185981;23;20012;-85
2022/07/25 10:43:50;;;;;;;8.90;3.80;;;25.00;99.90;;;;;;6157513;23;20067;-84
2022/07/25 10:46:22;;;;;;;9.30;3.70;;;25.00;99.90;;;;;;6185660;23;20009;-85
2022/07/25 10:49:06;;;;;;;9.88;3.80;;;25.10;99.90;;;;;;6158339;23;20120;-88
2022/07/25 10:51:36;;;;;;;7.63;3.17;;;25.10;99.90;;;;;;6157368;23;20104;-87
2022/07/25 10:54:15;;;;;;;8.00;3.38;;;25.30;99.90;;;;;;6157660;23;20386;-85
2022/07/25 10:56:58;;;;;;;8.30;3.20;;;25.50;99.90;;;;;;6158780;23;20020;-86
2022/07/25 10:59:33;;;;;;;7.70;3.10;;;26.10;99.90;;;;;;6157860;23;20067;-85
2022/07/25 11:02:00;;;;;;;9.13;3.25;;;26.70;99.90;;;;;;6185223;23;20005;-86
2022/07/25 11:04:26;;;;;;;8.02;3.50;;;26.80;99.90;;;;;;6185781;23;20099;-86
2022/07/25 11:07:00;;;;;;;8.02;3.45;;;26.80;99.90;;;;;;6159246;23;20009;-85
2022/07/25 11:09:27;;;;;;;10.13;3.38;;;26.70;99.90;;;;;;6158617;23;20488;-85
2022/07/25 11:12:15;;;;;;;8.48;3.15;;;26.70;99.90;;;;;;6183824;23;20350;-85
2022/07/25 11:14:41;;;;;;;9.15;3.25;;;26.70;99.90;;;;;;6185634;23;20023;-86
2022/07/25 11:17:18;;;;;;;7.68;3.10;;;27.00;99.90;;;;;;6158629;23;20016;-85
2022/07/25 11:20:03;;;;;;;6.43;2.55;;;26.60;99.90;;;;;;6157485;23;20021;-85
2022/07/25 11:22:30;;;;;;;8.25;2.65;;;26.20;99.90;;;;;;6158684;23;20056;-85
2022/07/25 11:24:56;;;;;;;8.52;2.92;;;25.90;99.90;;;;;;6158379;23;20013;-85
2022/07/25 11:27:23;;;;;;;8.75;2.80;;;25.50;99.90;;;;;;6157974;23;20012;-85
2022/07/25 11:29:49;;;;;;;12.52;3.10;;;25.30;99.90;;;;;;6184768;23;20017;-85
2022/07/25 11:32:15;;;;;;;7.75;2.90;;;25.40;99.90;;;;;;6185279;23;20036;-85
2022/07/25 11:34:45;;;;;;;7.65;2.75;;;24.90;99.90;;;;;;6184487;23;20015;-85
2022/07/25 11:37:12;;;;;;;8.70;2.70;;;24.80;99.90;;;;;;6188007;23;20383;-85
2022/07/25 11:39:40;;;;;;;9.18;2.63;;;24.70;99.90;;;;;;6162831;23;20373;-86
2022/07/25 11:42:16;;;;;;;7.55;2.55;;;24.70;99.90;;;;;;6183578;23;20059;-85
2022/07/25 11:44:46;;;;;;;8.18;2.70;;;24.70;99.90;;;;;;6202217;23;20005;-86
2022/07/25 11:47:29;;;;;;;9.93;2.50;;;24.80;99.90;;;;;;6185671;23;20024;-85
2022/07/25 11:50:01;;;;;;;7.28;2.60;;;24.90;99.90;;;;;;6166257;23;20084;-85
2022/07/25 11:52:30;;;;;;;9.68;2.60;;;25.00;99.90;;;;;;6160032;23;20045;-86
2022/07/25 11:54:59;;;;;;;7.10;2.60;;;25.30;99.90;;;;;;6157207;23;20449;-87
2022/07/25 11:57:36;;;;;;;7.60;2.60;;;25.40;99.90;;;;;;6183650;23;20021;-86
2022/07/25 12:00:08;;;;;;;7.82;2.60;;;25.40;99.90;;;;;;6158252;23;20337;-86
2022/07/25 12:02:35;;;;;;;7.63;2.67;;;25.50;99.90;;;;;;6157924;23;20017;-85
2022/07/25 12:05:06;;;;;;;8.70;2.45;;;25.40;99.90;;;;;;6185166;23;20013;-86
2022/07/25 12:07:40;;;;;;;8.80;2.70;;;25.40;99.90;;;;;;6185090;23;20021;-86
2022/07/25 12:10:09;;;;;;;7.00;2.40;;;25.10;99.90;;;;;;6156580;23;20052;-86
2022/07/25 12:12:55;;;;;;;8.20;2.58;;;25.00;99.90;;;;;;6184889;23;20031;-86
2022/07/25 12:15:34;;;;;;;8.75;2.58;;;25.00;99.90;;;;;;6183551;23;20053;-86
2022/07/25 12:18:01;;;;;;;9.43;2.60;;;25.00;99.90;;;;;;6158219;23;20021;-85
2022/07/25 12:20:29;;;;;;;8.77;2.80;;;25.10;99.90;;;;;;6168018;23;20028;-85
2022/07/25 12:23:08;;;;;;;11.25;2.85;;;24.90;99.90;;;;;;6217276;23;20441;-85
2022/07/25 12:25:36;;;;;;;11.10;2.80;;;25.00;99.90;;;;;;6218000;23;20024;-86
2022/07/25 12:28:20;;;;;;;9.38;2.92;;;24.90;99.90;;;;;;6244453;23;20340;-84
2022/07/25 12:30:47;;;;;;;7.72;2.63;;;24.80;99.90;;;;;;6244114;23;20027;-84
2022/07/25 12:33:32;;;;;;;12.88;3.10;;;24.90;99.90;;;;;;6244983;23;20498;-85
2022/07/25 12:35:59;;;;;;;9.30;3.22;;;24.90;99.90;;;;;;6217740;23;20401;-86
2022/07/25 12:38:43;;;;;;;8.93;2.90;;;25.40;99.90;;;;;;6217252;23;20087;-85
2022/07/25 12:41:08;;;;;;;9.80;3.05;;;24.90;99.90;;;;;;6245329;23;20028;-85
2022/07/25 12:43:37;;;;;;;9.10;2.70;;;25.00;99.90;;;;;;6216984;23;20016;-84
2022/07/25 12:46:05;;;;;;;10.60;2.80;;;25.10;99.90;;;;;;6244789;23;20026;-85